Terminal Aerodrome Forecast
Issued by NWS Caribou, ME

Home | Current Version | Previous Version | Text Only | Print | Product List | Glossary On
Versions: 1 2 3 4 5 6 7 8 9 10 11 12 13 14 15 16 17 18 19
000
FTUS41 KCAR 311100
TAFBGR
TAF
KBGR 311120Z 3112/0112 20004KT 6SM BR BKN008 OVC015
     FM311300 21005KT P6SM SCT015 BKN035
     FM311400 19006KT P6SM SCT040
     FM312200 19008KT P6SM VCSH SCT045 BKN080
     FM010400 19004KT P6SM BKN030
     FM010600 VRB03KT 3SM BR BKN012 OVC025=

USA.gov is the U.S. government's official web portal to all federal, state and local government web resources and services.